sensor_id;sensor_type;location;lat;lon;timestamp;pressure;altitude;pressure_sealevel;temperature;humidity
36748;BME280;22716;51.556;5.080;2023-04-03T00:01:41;102247.56;;;5.52;100.00
36748;BME280;22716;51.556;5.080;2023-04-03T00:04:10;102238.69;;;5.45;100.00
36748;BME280;22716;51.556;5.080;2023-04-03T00:06:39;102260.38;;;5.46;100.00
36748;BME280;22716;51.556;5.080;2023-04-03T00:09:08;102247.38;;;5.46;100.00
36748;BME280;22716;51.556;5.080;2023-04-03T00:11:36;102250.81;;;5.45;100.00
36748;BME280;22716;51.556;5.080;2023-04-03T00:14:05;102253.34;;;5.43;100.00
36748;BME280;22716;51.556;5.080;2023-04-03T00:16:37;102251.41;;;5.36;100.00
36748;BME280;22716;51.556;5.080;2023-04-03T00:19:05;102267.97;;;5.40;100.00
36748;BME280;22716;51.556;5.080;2023-04-03T00:21:34;102257.41;;;5.35;100.00
36748;BME280;22716;51.556;5.080;2023-04-03T00:24:04;102259.81;;;5.29;100.00
36748;BME280;22716;51.556;5.080;2023-04-03T00:26:32;102266.47;;;5.21;100.00
36748;BME280;22716;51.556;5.080;2023-04-03T00:29:01;102262.00;;;5.17;100.00
36748;BME280;22716;51.556;5.080;2023-04-03T00:31:30;102269.00;;;5.20;100.00
36748;BME280;22716;51.556;5.080;2023-04-03T00:34:01;102262.88;;;5.18;100.00
36748;BME280;22716;51.556;5.080;2023-04-03T00:36:30;102270.56;;;5.15;100.00
36748;BME280;22716;51.556;5.080;2023-04-03T00:38:59;102269.56;;;5.11;100.00
36748;BME280;22716;51.556;5.080;2023-04-03T00:41:27;102262.53;;;5.07;100.00
36748;BME280;22716;51.556;5.080;2023-04-03T00:43:57;102267.72;;;5.07;100.00
36748;BME280;22716;51.556;5.080;2023-04-03T00:46:26;102272.03;;;5.06;100.00
36748;BME280;22716;51.556;5.080;2023-04-03T00:48:55;102272.75;;;5.02;100.00
36748;BME280;22716;51.556;5.080;2023-04-03T00:51:26;102269.94;;;4.96;100.00
36748;BME280;22716;51.556;5.080;2023-04-03T00:53:59;102273.50;;;4.98;100.00
36748;BME280;22716;51.556;5.080;2023-04-03T00:56:29;102281.16;;;4.95;100.00
36748;BME280;22716;51.556;5.080;2023-04-03T00:59:00;102283.66;;;4.92;100.00
36748;BME280;22716;51.556;5.080;2023-04-03T01:01:31;102281.75;;;4.87;100.00
36748;BME280;22716;51.556;5.080;2023-04-03T01:04:00;102256.84;;;4.70;100.00
36748;BME280;22716;51.556;5.080;2023-04-03T01:06:34;102278.97;;;4.82;100.00
36748;BME280;22716;51.556;5.080;2023-04-03T01:09:05;102287.72;;;4.84;100.00
36748;BME280;22716;51.556;5.080;2023-04-03T01:11:34;102278.06;;;4.82;100.00
36748;BME280;22716;51.556;5.080;2023-04-03T01:14:02;102281.56;;;4.82;100.00
36748;BME280;22716;51.556;5.080;2023-04-03T01:16:32;102285.03;;;4.83;100.00
36748;BME280;22716;51.556;5.080;2023-04-03T01:19:01;102284.00;;;4.78;100.00
36748;BME280;22716;51.556;5.080;2023-04-03T01:22:07;102283.13;;;4.77;100.00
36748;BME280;22716;51.556;5.080;2023-04-03T01:24:41;102276.66;;;4.66;100.00
36748;BME280;22716;51.556;5.080;2023-04-03T01:27:10;102276.44;;;4.60;100.00
36748;BME280;22716;51.556;5.080;2023-04-03T01:29:41;102273.94;;;4.63;100.00
36748;BME280;22716;51.556;5.080;2023-04-03T01:32:14;102285.16;;;4.62;100.00
36748;BME280;22716;51.556;5.080;2023-04-03T01:34:43;102270.69;;;4.69;100.00
36748;BME280;22716;51.556;5.080;2023-04-03T01:37:11;102276.88;;;4.72;100.00
36748;BME280;22716;51.556;5.080;2023-04-03T01:39:40;102271.28;;;4.62;100.00
36748;BME280;22716;51.556;5.080;2023-04-03T01:42:09;102266.97;;;4.62;100.00
36748;BME280;22716;51.556;5.080;2023-04-03T01:44:38;102276.59;;;4.65;100.00
36748;BME280;22716;51.556;5.080;2023-04-03T01:47:07;102286.16;;;4.66;100.00
36748;BME280;22716;51.556;5.080;2023-04-03T01:49:38;102282.44;;;4.59;100.00
36748;BME280;22716;51.556;5.080;2023-04-03T01:52:07;102278.72;;;4.52;100.00
36748;BME280;22716;51.556;5.080;2023-04-03T01:54:36;102285.59;;;4.50;100.00
36748;BME280;22716;51.556;5.080;2023-04-03T01:57:05;102267.84;;;4.39;100.00
36748;BME280;22716;51.556;5.080;2023-04-03T01:59:34;102281.94;;;4.45;100.00
36748;BME280;22716;51.556;5.080;2023-04-03T02:02:03;102274.97;;;4.44;100.00
36748;BME280;22716;51.556;5.080;2023-04-03T02:04:31;102280.13;;;4.43;100.00
36748;BME280;22716;51.556;5.080;2023-04-03T02:07:03;102275.56;;;4.37;100.00
36748;BME280;22716;51.556;5.080;2023-04-03T02:09:31;102281.00;;;4.43;100.00
36748;BME280;22716;51.556;5.080;2023-04-03T02:12:00;102290.75;;;4.49;100.00
36748;BME280;22716;51.556;5.080;2023-04-03T02:14:29;102289.91;;;4.50;100.00
36748;BME280;22716;51.556;5.080;2023-04-03T02:17:00;102268.75;;;4.39;100.00
36748;BME280;22716;51.556;5.080;2023-04-03T02:19:30;102289.66;;;4.44;100.00
36748;BME280;22716;51.556;5.080;2023-04-03T02:21:59;102288.63;;;4.39;100.00
36748;BME280;22716;51.556;5.080;2023-04-03T02:24:31;102300.00;;;4.42;100.00
36748;BME280;22716;51.556;5.080;2023-04-03T02:27:00;102299.94;;;4.41;100.00
36748;BME280;22716;51.556;5.080;2023-04-03T02:29:29;102298.91;;;4.37;100.00
36748;BME280;22716;51.556;5.080;2023-04-03T02:31:58;102303.13;;;4.34;100.00
36748;BME280;22716;51.556;5.080;2023-04-03T02:34:26;102283.22;;;4.11;100.00
36748;BME280;22716;51.556;5.080;2023-04-03T02:36:55;102297.28;;;4.17;100.00
36748;BME280;22716;51.556;5.080;2023-04-03T02:39:24;102301.81;;;4.23;100.00
36748;BME280;22716;51.556;5.080;2023-04-03T02:41:55;102249.44;;;3.87;100.00
36748;BME280;22716;51.556;5.080;2023-04-03T02:44:24;102290.16;;;4.12;100.00
36748;BME280;22716;51.556;5.080;2023-04-03T02:46:53;102313.69;;;4.16;100.00
36748;BME280;22716;51.556;5.080;2023-04-03T02:49:22;102312.81;;;4.16;100.00
36748;BME280;22716;51.556;5.080;2023-04-03T02:51:50;102308.66;;;4.21;100.00
36748;BME280;22716;51.556;5.080;2023-04-03T02:54:19;102308.63;;;4.19;100.00
36748;BME280;22716;51.556;5.080;2023-04-03T02:56:51;102313.75;;;4.18;100.00
36748;BME280;22716;51.556;5.080;2023-04-03T02:59:22;102305.97;;;4.18;100.00
36748;BME280;22716;51.556;5.080;2023-04-03T03:01:51;102310.22;;;4.16;100.00
36748;BME280;22716;51.556;5.080;2023-04-03T03:04:21;102304.91;;;4.13;100.00
36748;BME280;22716;51.556;5.080;2023-04-03T03:06:50;102297.81;;;4.09;100.00
36748;BME280;22716;51.556;5.080;2023-04-03T03:09:19;102310.97;;;4.13;100.00
36748;BME280;22716;51.556;5.080;2023-04-03T03:11:47;102303.38;;;4.18;100.00
36748;BME280;22716;51.556;5.080;2023-04-03T03:14:16;102302.53;;;4.19;100.00
36748;BME280;22716;51.556;5.080;2023-04-03T03:16:47;102303.13;;;4.12;100.00
36748;BME280;22716;51.556;5.080;2023-04-03T03:19:17;102307.53;;;4.14;100.00
36748;BME280;22716;51.556;5.080;2023-04-03T03:21:46;102311.63;;;4.08;100.00
36748;BME280;22716;51.556;5.080;2023-04-03T03:24:14;102313.25;;;4.06;100.00
36748;BME280;22716;51.556;5.080;2023-04-03T03:26:44;102312.31;;;4.04;100.00
36748;BME280;22716;51.556;5.080;2023-04-03T03:29:13;102313.91;;;4.00;100.00
36748;BME280;22716;51.556;5.080;2023-04-03T03:31:41;102316.34;;;3.95;100.00
36748;BME280;22716;51.556;5.080;2023-04-03T03:34:12;102314.31;;;3.88;100.00
36748;BME280;22716;51.556;5.080;2023-04-03T03:36:41;102311.34;;;3.79;100.00
36748;BME280;22716;51.556;5.080;2023-04-03T03:39:10;102310.28;;;3.74;100.00
36748;BME280;22716;51.556;5.080;2023-04-03T03:41:39;102324.94;;;3.74;100.00
36748;BME280;22716;51.556;5.080;2023-04-03T03:44:08;102325.72;;;3.71;100.00
36748;BME280;22716;51.556;5.080;2023-04-03T03:46:36;102329.06;;;3.69;100.00
36748;BME280;22716;51.556;5.080;2023-04-03T03:49:05;102330.94;;;3.73;100.00
36748;BME280;22716;51.556;5.080;2023-04-03T03:51:37;102330.84;;;3.70;100.00
36748;BME280;22716;51.556;5.080;2023-04-03T03:54:07;102337.75;;;3.69;100.00
36748;BME280;22716;51.556;5.080;2023-04-03T03:56:36;102337.88;;;3.72;100.00
36748;BME280;22716;51.556;5.080;2023-04-03T03:59:05;102340.47;;;3.72;100.00
36748;BME280;22716;51.556;5.080;2023-04-03T04:01:34;102335.28;;;3.72;100.00
36748;BME280;22716;51.556;5.080;2023-04-03T04:04:02;102333.44;;;3.70;100.00
36748;BME280;22716;51.556;5.080;2023-04-03T04:06:31;102330.13;;;3.74;100.00
36748;BME280;22716;51.556;5.080;2023-04-03T04:09:03;102331.47;;;3.64;100.00
36748;BME280;22716;51.556;5.080;2023-04-03T04:11:32;102339.31;;;3.66;100.00
36748;BME280;22716;51.556;5.080;2023-04-03T04:14:00;102334.81;;;3.62;100.00
36748;BME280;22716;51.556;5.080;2023-04-03T04:16:29;102340.84;;;3.61;100.00
36748;BME280;22716;51.556;5.080;2023-04-03T04:18:58;102344.66;;;3.50;100.00
36748;BME280;22716;51.556;5.080;2023-04-03T04:21:27;102334.25;;;3.48;100.00
36748;BME280;22716;51.556;5.080;2023-04-03T04:23:55;102336.97;;;3.51;100.00
36748;BME280;22716;51.556;5.080;2023-04-03T04:26:27;102339.44;;;3.48;100.00
36748;BME280;22716;51.556;5.080;2023-04-03T04:28:55;102332.28;;;3.43;100.00
36748;BME280;22716;51.556;5.080;2023-04-03T04:31:24;102333.38;;;3.48;100.00
36748;BME280;22716;51.556;5.080;2023-04-03T04:33:53;102335.16;;;3.49;100.00
36748;BME280;22716;51.556;5.080;2023-04-03T04:36:22;102341.91;;;3.45;100.00
36748;BME280;22716;51.556;5.080;2023-04-03T04:38:51;102334.69;;;3.38;100.00
36748;BME280;22716;51.556;5.080;2023-04-03T04:41:21;102345.03;;;3.38;100.00
36748;BME280;22716;51.556;5.080;2023-04-03T04:43:53;102350.22;;;3.38;100.00
36748;BME280;22716;51.556;5.080;2023-04-03T04:46:22;102344.09;;;3.36;100.00
36748;BME280;22716;51.556;5.080;2023-04-03T04:48:50;102334.63;;;3.36;100.00
36748;BME280;22716;51.556;5.080;2023-04-03T04:51:19;102336.28;;;3.34;100.00
36748;BME280;22716;51.556;5.080;2023-04-03T04:53:48;102347.31;;;3.30;100.00
36748;BME280;22716;51.556;5.080;2023-04-03T04:56:17;102358.88;;;3.38;100.00
36748;BME280;22716;51.556;5.080;2023-04-03T04:58:46;102357.19;;;3.39;100.00
36748;BME280;22716;51.556;5.080;2023-04-03T05:01:17;102341.88;;;3.24;100.00
36748;BME280;22716;51.556;5.080;2023-04-03T05:03:46;102361.84;;;3.27;100.00
36748;BME280;22716;51.556;5.080;2023-04-03T05:06:15;102359.34;;;3.28;100.00
36748;BME280;22716;51.556;5.080;2023-04-03T05:08:44;102356.38;;;3.21;100.00
36748;BME280;22716;51.556;5.080;2023-04-03T05:11:12;102358.50;;;3.29;100.00
36748;BME280;22716;51.556;5.080;2023-04-03T05:13:41;102368.03;;;3.30;100.00
36748;BME280;22716;51.556;5.080;2023-04-03T05:16:10;102358.22;;;3.23;100.00
36748;BME280;22716;51.556;5.080;2023-04-03T05:18:42;102368.72;;;3.26;100.00
36748;BME280;22716;51.556;5.080;2023-04-03T05:21:10;102366.22;;;3.28;100.00
36748;BME280;22716;51.556;5.080;2023-04-03T05:23:39;102373.28;;;3.32;100.00
36748;BME280;22716;51.556;5.080;2023-04-03T05:26:08;102373.34;;;3.33;100.00
36748;BME280;22716;51.556;5.080;2023-04-03T05:28:36;102372.47;;;3.33;100.00
36748;BME280;22716;51.556;5.080;2023-04-03T05:31:05;102369.97;;;3.34;100.00
36748;BME280;22716;51.556;5.080;2023-04-03T05:33:34;102368.16;;;3.33;100.00
36748;BME280;22716;51.556;5.080;2023-04-03T05:36:07;102376.13;;;3.38;100.00
36748;BME280;22716;51.556;5.080;2023-04-03T05:38:36;102373.13;;;3.29;100.00
36748;BME280;22716;51.556;5.080;2023-04-03T05:41:05;102375.06;;;3.33;100.00
36748;BME280;22716;51.556;5.080;2023-04-03T05:43:33;102373.13;;;3.29;100.00
36748;BME280;22716;51.556;5.080;2023-04-03T05:46:09;102380.19;;;3.31;100.00
36748;BME280;22716;51.556;5.080;2023-04-03T05:48:38;102376.25;;;3.41;100.00
36748;BME280;22716;51.556;5.080;2023-04-03T05:51:14;102369.97;;;3.34;100.00
36748;BME280;22716;51.556;5.080;2023-04-03T05:53:44;102380.69;;;3.44;100.00
36748;BME280;22716;51.556;5.080;2023-04-03T05:56:14;102384.38;;;3.49;100.00
36748;BME280;22716;51.556;5.080;2023-04-03T05:58:43;102394.75;;;3.49;100.00
36748;BME280;22716;51.556;5.080;2023-04-03T06:01:11;102390.25;;;3.45;100.00
36748;BME280;22716;51.556;5.080;2023-04-03T06:03:41;102391.94;;;3.44;100.00
36748;BME280;22716;51.556;5.080;2023-04-03T06:06:14;102388.72;;;3.50;100.00
36748;BME280;22716;51.556;5.080;2023-04-03T06:08:43;102395.06;;;3.56;100.00
36748;BME280;22716;51.556;5.080;2023-04-03T06:11:12;102402.28;;;3.63;100.00
36748;BME280;22716;51.556;5.080;2023-04-03T06:13:41;102398.00;;;3.64;100.00
36748;BME280;22716;51.556;5.080;2023-04-03T06:16:12;102395.88;;;3.76;100.00
36748;BME280;22716;51.556;5.080;2023-04-03T06:18:42;102392.59;;;3.80;100.00
36748;BME280;22716;51.556;5.080;2023-04-03T06:21:13;102393.63;;;3.83;100.00
36748;BME280;22716;51.556;5.080;2023-04-03T06:23:42;102407.16;;;3.97;100.00
36748;BME280;22716;51.556;5.080;2023-04-03T06:26:11;102407.59;;;4.08;100.00
36748;BME280;22716;51.556;5.080;2023-04-03T06:28:40;102403.59;;;4.16;100.00
36748;BME280;22716;51.556;5.080;2023-04-03T06:31:09;102406.56;;;4.25;100.00
36748;BME280;22716;51.556;5.080;2023-04-03T06:33:37;102396.22;;;4.26;100.00
36748;BME280;22716;51.556;5.080;2023-04-03T06:36:09;102408.56;;;4.32;100.00
36748;BME280;22716;51.556;5.080;2023-04-03T06:38:41;102398.00;;;4.27;100.00
36748;BME280;22716;51.556;5.080;2023-04-03T06:41:10;102411.53;;;4.41;100.00
36748;BME280;22716;51.556;5.080;2023-04-03T06:43:39;102415.50;;;4.53;100.00
36748;BME280;22716;51.556;5.080;2023-04-03T06:46:14;102411.06;;;4.51;100.00
36748;BME280;22716;51.556;5.080;2023-04-03T06:48:44;102423.56;;;4.61;100.00
36748;BME280;22716;51.556;5.080;2023-04-03T06:51:21;102428.41;;;4.74;100.00
36748;BME280;22716;51.556;5.080;2023-04-03T06:53:54;102428.41;;;4.74;100.00
36748;BME280;22716;51.556;5.080;2023-04-03T06:56:25;102419.44;;;4.88;100.00
36748;BME280;22716;51.556;5.080;2023-04-03T06:58:55;102418.88;;;4.97;100.00
36748;BME280;22716;51.556;5.080;2023-04-03T07:01:25;102426.75;;;4.98;99.02
36748;BME280;22716;51.556;5.080;2023-04-03T07:03:55;102433.56;;;4.96;98.66
36748;BME280;22716;51.556;5.080;2023-04-03T07:06:24;102431.09;;;4.99;98.29
36748;BME280;22716;51.556;5.080;2023-04-03T07:08:57;102420.09;;;5.06;98.02
36748;BME280;22716;51.556;5.080;2023-04-03T07:11:26;102422.81;;;5.09;97.82
36748;BME280;22716;51.556;5.080;2023-04-03T07:13:55;102436.81;;;5.13;96.93
36748;BME280;22716;51.556;5.080;2023-04-03T07:16:24;102438.75;;;5.19;96.66
36748;BME280;22716;51.556;5.080;2023-04-03T07:18:52;102428.94;;;5.12;96.48
36748;BME280;22716;51.556;5.080;2023-04-03T07:21:21;102433.59;;;5.20;95.77
36748;BME280;22716;51.556;5.080;2023-04-03T07:23:50;102413.44;;;5.13;95.75
36748;BME280;22716;51.556;5.080;2023-04-03T07:26:22;102449.47;;;5.51;94.84
36748;BME280;22716;51.556;5.080;2023-04-03T07:28:51;102447.13;;;5.84;93.46
36748;BME280;22716;51.556;5.080;2023-04-03T07:31:19;102445.97;;;5.75;92.62
36748;BME280;22716;51.556;5.080;2023-04-03T07:33:48;102444.47;;;5.81;92.77
36748;BME280;22716;51.556;5.080;2023-04-03T07:36:19;102444.22;;;5.99;92.21
36748;BME280;22716;51.556;5.080;2023-04-03T07:38:48;102455.50;;;5.99;91.40
36748;BME280;22716;51.556;5.080;2023-04-03T07:41:21;102451.66;;;5.88;91.46
36748;BME280;22716;51.556;5.080;2023-04-03T07:43:50;102451.56;;;5.85;90.44
36748;BME280;22716;51.556;5.080;2023-04-03T07:46:19;102458.44;;;5.85;90.30
36748;BME280;22716;51.556;5.080;2023-04-03T07:48:48;102460.28;;;5.87;89.76
36748;BME280;22716;51.556;5.080;2023-04-03T07:51:16;102443.94;;;5.90;89.40
36748;BME280;22716;51.556;5.080;2023-04-03T07:53:46;102452.38;;;6.09;88.71
36748;BME280;22716;51.556;5.080;2023-04-03T07:56:16;102443.44;;;6.01;87.76
36748;BME280;22716;51.556;5.080;2023-04-03T07:58:48;102454.81;;;6.05;87.85
36748;BME280;22716;51.556;5.080;2023-04-03T08:01:17;102456.03;;;6.14;87.16
36748;BME280;22716;51.556;5.080;2023-04-03T08:03:46;102463.13;;;6.20;86.60
36748;BME280;22716;51.556;5.080;2023-04-03T08:06:15;102459.44;;;6.39;86.17
36748;BME280;22716;51.556;5.080;2023-04-03T08:08:44;102473.66;;;6.50;85.06
36748;BME280;22716;51.556;5.080;2023-04-03T08:11:13;102467.56;;;6.49;84.59
36748;BME280;22716;51.556;5.080;2023-04-03T08:13:41;102468.66;;;6.56;83.58
36748;BME280;22716;51.556;5.080;2023-04-03T08:16:16;102453.41;;;6.40;83.03
36748;BME280;22716;51.556;5.080;2023-04-03T08:18:45;102450.41;;;6.56;82.73
36748;BME280;22716;51.556;5.080;2023-04-03T08:21:15;102468.13;;;6.66;81.38
36748;BME280;22716;51.556;5.080;2023-04-03T08:23:43;102475.06;;;6.67;80.37
36748;BME280;22716;51.556;5.080;2023-04-03T08:26:14;102469.94;;;6.68;79.71
36748;BME280;22716;51.556;5.080;2023-04-03T08:28:43;102466.56;;;6.72;79.57
36748;BME280;22716;51.556;5.080;2023-04-03T08:31:17;102480.44;;;6.71;79.13
36748;BME280;22716;51.556;5.080;2023-04-03T08:33:47;102476.34;;;6.80;78.56
36748;BME280;22716;51.556;5.080;2023-04-03T08:36:18;102484.66;;;6.96;78.30
36748;BME280;22716;51.556;5.080;2023-04-03T08:38:48;102496.06;;;7.00;77.34
36748;BME280;22716;51.556;5.080;2023-04-03T08:41:22;102481.16;;;6.96;76.32
36748;BME280;22716;51.556;5.080;2023-04-03T08:44:02;102480.53;;;7.03;75.96
36748;BME280;22716;51.556;5.080;2023-04-03T08:46:44;102481.06;;;7.21;75.32
36748;BME280;22716;51.556;5.080;2023-04-03T08:49:22;102482.31;;;7.33;74.91
36748;BME280;22716;51.556;5.080;2023-04-03T08:51:54;102475.44;;;7.37;73.44
36748;BME280;22716;51.556;5.080;2023-04-03T08:54:28;102487.72;;;7.40;72.02
36748;BME280;22716;51.556;5.080;2023-04-03T08:57:00;102489.47;;;7.41;71.12
36748;BME280;22716;51.556;5.080;2023-04-03T08:59:34;102493.88;;;7.43;69.72
36748;BME280;22716;51.556;5.080;2023-04-03T09:02:24;102486.41;;;7.55;69.26
36748;BME280;22716;51.556;5.080;2023-04-03T09:04:54;102482.31;;;7.65;69.00
36748;BME280;22716;51.556;5.080;2023-04-03T09:07:32;102499.94;;;7.73;67.28
36748;BME280;22716;51.556;5.080;2023-04-03T09:10:02;102499.84;;;7.69;64.63
36748;BME280;22716;51.556;5.080;2023-04-03T09:12:34;102495.47;;;7.68;63.53
36748;BME280;22716;51.556;5.080;2023-04-03T09:15:16;102493.75;;;7.70;61.73
36748;BME280;22716;51.556;5.080;2023-04-03T09:17:55;102497.31;;;7.72;58.08
36748;BME280;22716;51.556;5.080;2023-04-03T09:20:34;102493.75;;;7.68;54.47
36748;BME280;22716;51.556;5.080;2023-04-03T09:23:19;102493.22;;;7.81;53.64
36748;BME280;22716;51.556;5.080;2023-04-03T09:25:50;102483.66;;;7.82;51.88
36748;BME280;22716;51.556;5.080;2023-04-03T09:28:21;102485.53;;;7.86;49.48
36748;BME280;22716;51.556;5.080;2023-04-03T09:30:50;102478.69;;;7.91;49.20
36748;BME280;22716;51.556;5.080;2023-04-03T09:33:21;102458.63;;;7.88;48.36
36748;BME280;22716;51.556;5.080;2023-04-03T09:35:51;102478.19;;;8.06;47.66
36748;BME280;22716;51.556;5.080;2023-04-03T09:38:21;102464.97;;;7.98;47.36
36748;BME280;22716;51.556;5.080;2023-04-03T09:41:04;102476.66;;;8.14;47.26
36748;BME280;22716;51.556;5.080;2023-04-03T09:43:35;102476.56;;;8.09;44.39
36748;BME280;22716;51.556;5.080;2023-04-03T09:46:20;102467.09;;;8.13;44.42
36748;BME280;22716;51.556;5.080;2023-04-03T09:48:56;102465.38;;;8.15;44.13
36748;BME280;22716;51.556;5.080;2023-04-03T09:51:27;102460.25;;;8.19;44.05
36748;BME280;22716;51.556;5.080;2023-04-03T09:53:57;102444.91;;;7.97;42.10
36748;BME280;22716;51.556;5.080;2023-04-03T09:56:28;102407.22;;;7.86;41.74
36748;BME280;22716;51.556;5.080;2023-04-03T09:59:12;102469.88;;;8.20;41.69
36748;BME280;22716;51.556;5.080;2023-04-03T10:01:57;102460.41;;;8.25;42.08
36748;BME280;22716;51.556;5.080;2023-04-03T10:04:37;102462.13;;;8.23;41.47
36748;BME280;22716;51.556;5.080;2023-04-03T10:07:31;102464.72;;;8.23;40.39
36748;BME280;22716;51.556;5.080;2023-04-03T10:10:16;102468.25;;;8.25;40.31
36748;BME280;22716;51.556;5.080;2023-04-03T10:12:48;102465.63;;;8.25;39.48
36748;BME280;22716;51.556;5.080;2023-04-03T10:15:20;102468.66;;;8.40;40.17
36748;BME280;22716;51.556;5.080;2023-04-03T10:17:53;102461.72;;;8.41;39.22
36748;BME280;22716;51.556;5.080;2023-04-03T10:20:33;102437.03;;;8.28;38.95
36748;BME280;22716;51.556;5.080;2023-04-03T10:23:15;102440.66;;;8.33;39.00
36748;BME280;22716;51.556;5.080;2023-04-03T10:25:54;102447.84;;;8.43;38.70
36748;BME280;22716;51.556;5.080;2023-04-03T10:28:29;102450.31;;;8.37;38.56
36748;BME280;22716;51.556;5.080;2023-04-03T10:31:04;102446.13;;;8.45;38.77
36748;BME280;22716;51.556;5.080;2023-04-03T10:33:55;102451.34;;;8.44;37.90
36748;BME280;22716;51.556;5.080;2023-04-03T10:36:36;102443.34;;;8.38;37.26
36748;BME280;22716;51.556;5.080;2023-04-03T10:39:15;102444.16;;;8.35;37.29
36748;BME280;22716;51.556;5.080;2023-04-03T10:41:57;102441.47;;;8.32;37.67
36748;BME280;22716;51.556;5.080;2023-04-03T10:44:35;102433.66;;;8.34;37.63
36748;BME280;22716;51.556;5.080;2023-04-03T10:47:10;102431.03;;;8.32;37.30
36748;BME280;22716;51.556;5.080;2023-04-03T10:49:48;102424.03;;;8.30;37.22
36748;BME280;22716;51.556;5.080;2023-04-03T10:52:25;102423.50;;;8.44;37.18
36748;BME280;22716;51.556;5.080;2023-04-03T10:55:06;102412.84;;;8.35;37.47
36748;BME280;22716;51.556;5.080;2023-04-03T10:57:36;102421.91;;;8.51;37.82
36748;BME280;22716;51.556;5.080;2023-04-03T11:00:15;102423.03;;;8.62;37.64
36748;BME280;22716;51.556;5.080;2023-04-03T11:02:49;102423.06;;;8.64;35.74
36748;BME280;22716;51.556;5.080;2023-04-03T11:05:28;102432.44;;;8.56;34.34
36748;BME280;22716;51.556;5.080;2023-04-03T11:08:05;102414.31;;;8.62;35.08
36748;BME280;22716;51.556;5.080;2023-04-03T11:10:41;102413.53;;;8.66;34.32
36748;BME280;22716;51.556;5.080;2023-04-03T11:13:13;102417.13;;;8.72;34.08
36748;BME280;22716;51.556;5.080;2023-04-03T11:15:44;102407.63;;;8.74;34.00
36748;BME280;22716;51.556;5.080;2023-04-03T11:18:15;102411.16;;;8.78;34.06
36748;BME280;22716;51.556;5.080;2023-04-03T11:20:53;102398.97;;;8.78;33.89
36748;BME280;22716;51.556;5.080;2023-04-03T11:23:25;102397.47;;;8.89;33.60
36748;BME280;22716;51.556;5.080;2023-04-03T11:25:58;102400.25;;;8.97;33.55
36748;BME280;22716;51.556;5.080;2023-04-03T11:28:30;102394.84;;;8.89;32.88
36748;BME280;22716;51.556;5.080;2023-04-03T11:31:05;102394.31;;;9.04;33.11
36748;BME280;22716;51.556;5.080;2023-04-03T11:33:45;102389.31;;;9.15;32.99
36748;BME280;22716;51.556;5.080;2023-04-03T11:36:22;102377.22;;;9.21;33.11
36748;BME280;22716;51.556;5.080;2023-04-03T11:38:57;102402.84;;;9.39;33.11
36748;BME280;22716;51.556;5.080;2023-04-03T11:41:29;102382.69;;;9.33;33.08
36748;BME280;22716;51.556;5.080;2023-04-03T11:44:00;102389.72;;;9.37;33.27
36748;BME280;22716;51.556;5.080;2023-04-03T11:46:52;102395.25;;;9.51;32.79
36748;BME280;22716;51.556;5.080;2023-04-03T11:49:53;102391.09;;;9.62;33.28
36748;BME280;22716;51.556;5.080;2023-04-03T11:55:54;102361.34;;;9.58;33.37
36748;BME280;22716;51.556;5.080;2023-04-03T11:58:24;102367.69;;;9.71;33.73
36748;BME280;22716;51.556;5.080;2023-04-03T12:07:00;102360.28;;;9.98;33.46
36748;BME280;22716;51.556;5.080;2023-04-03T12:09:34;102370.94;;;10.09;33.81
36748;BME280;22716;51.556;5.080;2023-04-03T12:12:36;102366.59;;;10.09;33.02
36748;BME280;22716;51.556;5.080;2023-04-03T12:15:19;102377.28;;;10.23;32.74
36748;BME280;22716;51.556;5.080;2023-04-03T12:17:47;102371.16;;;10.23;32.68
36748;BME280;22716;51.556;5.080;2023-04-03T12:23:28;102359.91;;;10.28;32.18
36748;BME280;22716;51.556;5.080;2023-04-03T12:26:04;102357.38;;;10.33;32.47
36748;BME280;22716;51.556;5.080;2023-04-03T12:28:41;102354.88;;;10.43;32.08
36748;BME280;22716;51.556;5.080;2023-04-03T12:31:12;102345.25;;;10.42;30.89
36748;BME280;22716;51.556;5.080;2023-04-03T12:34:11;102338.09;;;10.31;30.79
36748;BME280;22716;51.556;5.080;2023-04-03T12:36:48;102331.78;;;10.17;30.31
36748;BME280;22716;51.556;5.080;2023-04-03T12:39:33;102339.69;;;10.18;30.62
36748;BME280;22716;51.556;5.080;2023-04-03T12:42:20;102329.22;;;10.20;31.05
36748;BME280;22716;51.556;5.080;2023-04-03T12:44:57;102330.91;;;10.16;31.56
36748;BME280;22716;51.556;5.080;2023-04-03T12:47:34;102339.69;;;10.18;32.14
36748;BME280;22716;51.556;5.080;2023-04-03T12:50:18;102335.50;;;10.32;32.20
36748;BME280;22716;51.556;5.080;2023-04-03T12:52:54;102328.41;;;10.24;31.68
36748;BME280;22716;51.556;5.080;2023-04-03T12:55:25;102305.22;;;9.94;31.17
36748;BME280;22716;51.556;5.080;2023-04-03T12:57:54;102316.78;;;10.08;31.20
36748;BME280;22716;51.556;5.080;2023-04-03T13:00:32;102328.06;;;10.04;31.36
36748;BME280;22716;51.556;5.080;2023-04-03T13:03:06;102300.84;;;9.91;31.75
36748;BME280;22716;51.556;5.080;2023-04-03T13:05:47;102308.78;;;9.97;31.89
36748;BME280;22716;51.556;5.080;2023-04-03T13:08:17;102309.66;;;9.98;31.71
36748;BME280;22716;51.556;5.080;2023-04-03T13:10:54;102306.84;;;9.86;31.81
36748;BME280;22716;51.556;5.080;2023-04-03T13:13:23;102316.28;;;9.76;32.00
36748;BME280;22716;51.556;5.080;2023-04-03T13:15:55;102308.34;;;9.72;32.21
36748;BME280;22716;51.556;5.080;2023-04-03T13:18:29;102323.06;;;9.64;32.31
36748;BME280;22716;51.556;5.080;2023-04-03T13:21:03;102316.09;;;9.64;32.71
36748;BME280;22716;51.556;5.080;2023-04-03T13:23:36;102316.09;;;9.64;33.40
36748;BME280;22716;51.556;5.080;2023-04-03T13:26:06;102303.72;;;9.55;33.96
36748;BME280;22716;51.556;5.080;2023-04-03T13:28:35;102294.31;;;9.67;34.18
36748;BME280;22716;51.556;5.080;2023-04-03T13:31:18;102296.09;;;9.68;34.68
36748;BME280;22716;51.556;5.080;2023-04-03T13:33:55;102295.25;;;9.69;34.75